createdAt,value
2017-06-05T00:01:10.530Z,6.30
2017-06-05T00:03:38.189Z,6.03
2017-06-05T00:06:05.847Z,6.10
2017-06-05T00:08:33.597Z,6.00
2017-06-05T00:11:01.348Z,6.17
2017-06-05T00:13:29.029Z,5.80
2017-06-05T00:15:56.688Z,6.00
2017-06-05T00:18:24.306Z,6.40
2017-06-05T00:20:51.910Z,5.80
2017-06-05T00:23:19.546Z,6.60
2017-06-05T00:25:47.312Z,5.97
2017-06-05T00:28:14.961Z,6.90
2017-06-05T00:30:42.636Z,6.00
2017-06-05T00:33:10.394Z,6.17
2017-06-05T00:35:38.169Z,6.53
2017-06-05T00:38:05.885Z,6.03
2017-06-05T00:40:33.585Z,6.60
2017-06-05T00:43:01.247Z,6.57
2017-06-05T00:45:28.923Z,6.00
2017-06-05T00:47:56.622Z,6.20
2017-06-05T00:50:24.428Z,6.70
2017-06-05T00:52:52.905Z,6.30
2017-06-05T00:55:21.267Z,6.20
2017-06-05T00:57:48.916Z,6.57
2017-06-05T01:00:16.642Z,7.17
2017-06-05T01:02:44.379Z,6.20
2017-06-05T01:05:12.876Z,7.10
2017-06-05T01:07:40.468Z,6.50
2017-06-05T01:10:08.231Z,6.33
2017-06-05T01:12:35.881Z,6.40
2017-06-05T01:15:03.592Z,5.90
2017-06-05T01:17:31.412Z,6.70
2017-06-05T01:19:59.065Z,7.07
2017-06-05T01:22:26.739Z,6.77
2017-06-05T01:24:54.467Z,6.90
2017-06-05T01:27:23.064Z,6.13
2017-06-05T01:29:50.735Z,7.00
2017-06-05T01:32:18.928Z,6.93
2017-06-05T01:34:46.590Z,6.93
2017-06-05T01:37:14.478Z,6.70
2017-06-05T01:39:42.084Z,6.97
2017-06-05T01:42:10.489Z,6.53
2017-06-05T01:44:38.148Z,7.17
2017-06-05T01:47:05.791Z,7.77
2017-06-05T01:49:34.183Z,6.50
2017-06-05T01:52:02.643Z,6.47
2017-06-05T01:54:30.252Z,6.93
2017-06-05T01:56:57.829Z,6.53
2017-06-05T01:59:25.463Z,6.67
2017-06-05T02:01:53.141Z,6.50
2017-06-05T02:04:20.855Z,6.87
2017-06-05T02:06:48.488Z,6.33
2017-06-05T02:09:16.110Z,7.40
2017-06-05T02:11:43.713Z,7.40
2017-06-05T02:14:11.338Z,7.07
2017-06-05T02:16:38.945Z,7.77
2017-06-05T02:19:06.663Z,7.03
2017-06-05T02:21:34.226Z,7.90
2017-06-05T02:24:01.800Z,6.87
2017-06-05T02:26:29.429Z,6.80
2017-06-05T02:28:57.856Z,7.10
2017-06-05T02:31:25.475Z,7.27
2017-06-05T02:33:54.014Z,7.13
2017-06-05T02:36:21.757Z,7.10
2017-06-05T02:38:49.561Z,7.27
2017-06-05T02:41:17.128Z,7.40
2017-06-05T02:43:44.767Z,7.33
2017-06-05T02:46:12.399Z,6.80
2017-06-05T02:48:40.050Z,6.97
2017-06-05T02:51:07.810Z,7.20
2017-06-05T02:53:35.459Z,7.70
2017-06-05T02:56:03.940Z,7.17
2017-06-05T02:58:32.418Z,6.83
2017-06-05T03:00:59.983Z,6.87
2017-06-05T03:03:28.452Z,7.10
2017-06-05T03:05:56.089Z,7.50
2017-06-05T03:08:23.815Z,7.10
2017-06-05T03:10:51.391Z,8.33
2017-06-05T03:13:19.036Z,7.30
2017-06-05T03:15:46.719Z,7.77
2017-06-05T03:18:14.397Z,7.63
2017-06-05T03:20:42.254Z,7.73
2017-06-05T03:23:09.968Z,6.77
2017-06-05T03:25:38.415Z,8.13
2017-06-05T03:28:05.990Z,8.03
2017-06-05T03:30:33.553Z,7.63
2017-06-05T03:33:01.153Z,7.73
2017-06-05T03:35:28.693Z,7.50
2017-06-05T03:37:56.328Z,7.93
2017-06-05T03:40:23.868Z,7.07
2017-06-05T03:42:51.451Z,7.90
2017-06-05T03:45:19.020Z,8.20
2017-06-05T03:47:46.564Z,8.17
2017-06-05T03:50:14.103Z,8.30
2017-06-05T03:52:41.642Z,8.00
2017-06-05T03:55:09.998Z,9.20
2017-06-05T03:57:37.628Z,8.10
2017-06-05T04:00:05.169Z,8.57
2017-06-05T04:02:32.734Z,8.60
2017-06-05T04:05:00.279Z,8.40
2017-06-05T04:07:27.907Z,9.17
2017-06-05T04:09:56.258Z,8.90
2017-06-05T04:12:23.798Z,9.17
2017-06-05T04:14:51.358Z,10.43
2017-06-05T04:17:18.970Z,8.87
2017-06-05T04:19:46.626Z,10.17
2017-06-05T04:22:14.189Z,9.73
2017-06-05T04:24:41.742Z,9.87
2017-06-05T04:27:09.407Z,8.20
2017-06-05T04:29:36.994Z,8.90
2017-06-05T04:32:05.325Z,10.00
2017-06-05T04:34:32.878Z,9.47
2017-06-05T04:37:00.435Z,9.73
2017-06-05T04:39:28.067Z,9.27
2017-06-05T04:41:55.663Z,10.00
2017-06-05T04:44:23.234Z,9.50
2017-06-05T04:46:50.792Z,9.47
2017-06-05T04:49:18.364Z,9.10
2017-06-05T04:51:46.024Z,8.77
2017-06-05T04:54:13.575Z,9.70
2017-06-05T04:56:41.139Z,9.40
2017-06-05T04:59:08.714Z,9.30
2017-06-05T05:01:36.266Z,8.70
2017-06-05T05:04:03.844Z,10.03
2017-06-05T05:06:31.459Z,10.13
2017-06-05T05:08:59.049Z,9.13
2017-06-05T05:11:26.790Z,9.30
2017-06-05T05:13:54.446Z,10.60
2017-06-05T05:16:22.019Z,9.17
2017-06-05T05:18:49.575Z,11.27
2017-06-05T05:21:17.146Z,18.87
2017-06-05T05:23:44.720Z,9.13
2017-06-05T05:26:12.372Z,15.90
2017-06-05T05:28:39.935Z,9.47
2017-06-05T05:31:07.471Z,9.07
2017-06-05T05:33:35.007Z,8.63
2017-06-05T05:36:03.337Z,7.70
2017-06-05T05:38:30.894Z,7.80
2017-06-05T05:40:58.458Z,8.30
2017-06-05T05:43:26.118Z,7.17
2017-06-05T05:45:53.679Z,8.10
2017-06-05T05:48:21.253Z,8.20
2017-06-05T05:50:48.786Z,8.33
2017-06-05T05:53:16.364Z,7.80
2017-06-05T05:55:43.908Z,7.40
2017-06-05T05:58:11.486Z,7.50
2017-06-05T06:00:39.040Z,7.10
2017-06-05T06:03:06.610Z,7.30
2017-06-05T06:05:35.078Z,7.23
2017-06-05T06:08:02.650Z,7.30
2017-06-05T06:10:30.315Z,7.83
2017-06-05T06:12:57.875Z,8.23
2017-06-05T06:15:25.444Z,7.00
2017-06-05T06:17:52.994Z,7.47
2017-06-05T06:20:20.554Z,7.47
2017-06-05T06:22:48.103Z,7.50
2017-06-05T06:25:15.677Z,7.10
2017-06-05T06:27:43.280Z,7.30
2017-06-05T06:30:11.651Z,8.00
2017-06-05T06:32:39.207Z,7.43
2017-06-05T06:35:06.831Z,7.80
2017-06-05T06:37:34.445Z,7.40
2017-06-05T06:40:02.817Z,7.60
2017-06-05T06:42:31.162Z,8.30
2017-06-05T06:44:58.752Z,8.03
2017-06-05T06:47:26.287Z,8.00
2017-06-05T06:49:53.951Z,6.20
2017-06-05T06:52:21.498Z,7.53
2017-06-05T06:54:49.166Z,6.87
2017-06-05T06:57:16.727Z,6.20
2017-06-05T06:59:44.315Z,6.50
2017-06-05T07:02:11.955Z,6.17
2017-06-05T07:04:39.511Z,6.60
2017-06-05T07:07:07.078Z,5.30
2017-06-05T07:09:34.619Z,5.90
2017-06-05T07:12:02.180Z,5.60
2017-06-05T07:14:29.760Z,6.03
2017-06-05T07:16:57.315Z,6.00
2017-06-05T07:19:24.882Z,5.57
2017-06-05T07:21:52.636Z,5.37
2017-06-05T07:24:20.203Z,4.50
2017-06-05T07:26:47.762Z,5.50
2017-06-05T07:29:15.303Z,4.80
2017-06-05T07:31:42.871Z,5.03
2017-06-05T07:34:10.450Z,4.77
2017-06-05T07:36:38.026Z,5.20
2017-06-05T07:39:05.557Z,5.87
2017-06-05T07:41:33.129Z,4.90
2017-06-05T07:44:00.785Z,5.23
2017-06-05T07:46:28.319Z,4.97
2017-06-05T07:48:55.878Z,4.70
2017-06-05T07:51:23.411Z,5.83
2017-06-05T07:53:51.031Z,5.40
2017-06-05T07:56:18.594Z,5.37
2017-06-05T07:58:46.122Z,4.07
2017-06-05T08:01:13.663Z,3.67
2017-06-05T08:03:41.972Z,4.50
2017-06-05T08:06:09.545Z,3.40
2017-06-05T08:08:37.119Z,3.10
2017-06-05T08:11:04.779Z,3.13
2017-06-05T08:13:32.314Z,3.30
2017-06-05T08:15:59.900Z,3.87
2017-06-05T08:18:27.430Z,4.07
2017-06-05T08:20:55.021Z,3.97
2017-06-05T08:23:22.555Z,4.50
2017-06-05T08:25:50.119Z,3.63
2017-06-05T08:28:17.710Z,3.80
2017-06-05T08:30:45.239Z,3.77
2017-06-05T08:33:12.834Z,3.70
2017-06-05T08:35:40.386Z,3.40
2017-06-05T08:38:08.045Z,3.83
2017-06-05T08:40:35.607Z,3.37
2017-06-05T08:43:03.275Z,4.17
2017-06-05T08:45:30.834Z,3.83
2017-06-05T08:47:58.397Z,3.63
2017-06-05T08:50:25.962Z,3.47
2017-06-05T08:52:53.532Z,3.87
2017-06-05T08:55:21.064Z,3.20
2017-06-05T08:58:01.546Z,3.33
2017-06-05T09:00:29.106Z,4.07
2017-06-05T09:02:56.663Z,3.80
2017-06-05T09:05:24.189Z,3.80
2017-06-05T09:07:51.790Z,4.40
2017-06-05T09:10:19.446Z,3.73
2017-06-05T09:12:46.978Z,3.50
2017-06-05T09:15:14.542Z,3.60
2017-06-05T09:17:42.131Z,2.90
2017-06-05T09:20:09.699Z,3.40
2017-06-05T09:22:37.231Z,3.70
2017-06-05T09:25:04.759Z,3.60
2017-06-05T09:27:33.059Z,3.43
2017-06-05T09:30:00.592Z,2.70
2017-06-05T09:32:28.214Z,3.10
2017-06-05T09:34:55.782Z,3.50
2017-06-05T09:37:23.339Z,2.87
2017-06-05T09:39:50.895Z,3.27
2017-06-05T09:45:12.946Z,3.03
2017-06-05T09:47:40.518Z,2.60
2017-06-05T09:50:08.046Z,3.10
2017-06-05T09:52:35.637Z,2.90
2017-06-05T09:55:03.195Z,2.70
2017-06-05T09:57:30.758Z,2.97
2017-06-05T09:59:58.290Z,2.70
2017-06-05T10:02:25.877Z,2.90
2017-06-05T10:04:53.410Z,2.50
2017-06-05T10:07:21.010Z,3.00
2017-06-05T10:12:41.530Z,3.03
2017-06-05T10:15:09.067Z,2.53
2017-06-05T10:17:36.635Z,2.27
2017-06-05T10:20:04.190Z,2.40
2017-06-05T10:22:31.766Z,2.47
2017-06-05T10:24:59.314Z,2.40
2017-06-05T10:27:26.882Z,2.43
2017-06-05T10:29:54.441Z,2.53
2017-06-05T10:32:22.002Z,2.07
2017-06-05T10:34:49.574Z,2.60
2017-06-05T10:37:17.110Z,2.57
2017-06-05T10:39:44.633Z,2.60
2017-06-05T10:42:12.958Z,2.90
2017-06-05T10:44:40.494Z,2.73
2017-06-05T10:47:08.087Z,2.87
2017-06-05T10:49:35.754Z,2.50
2017-06-05T10:52:03.286Z,3.30
2017-06-05T10:54:30.874Z,2.50
2017-06-05T10:56:58.436Z,2.20
2017-06-05T10:59:26.091Z,2.20
2017-06-05T11:01:53.638Z,3.40
2017-06-05T11:04:21.218Z,2.97
2017-06-05T11:06:48.765Z,3.10
2017-06-05T11:09:16.316Z,3.60
2017-06-05T11:11:43.849Z,3.87
2017-06-05T11:14:12.270Z,3.40
2017-06-05T11:16:39.807Z,3.20
2017-06-05T11:19:07.398Z,3.67
2017-06-05T11:21:34.954Z,3.70
2017-06-05T11:24:02.632Z,3.87
2017-06-05T11:26:30.178Z,3.47
2017-06-05T11:28:57.838Z,3.40
2017-06-05T11:31:25.370Z,3.60
2017-06-05T11:33:52.970Z,3.30
2017-06-05T11:36:20.590Z,3.20
2017-06-05T11:38:48.125Z,3.23
2017-06-05T11:41:15.715Z,3.00
2017-06-05T11:43:43.313Z,3.10
2017-06-05T11:46:10.871Z,3.00
2017-06-05T11:48:38.440Z,3.93
2017-06-05T11:51:06.116Z,3.40
2017-06-05T11:53:33.762Z,3.10
2017-06-05T11:56:01.290Z,3.07
2017-06-05T11:58:28.823Z,3.10
2017-06-05T12:00:57.154Z,3.37
2017-06-05T12:03:24.705Z,3.40
2017-06-05T12:05:53.202Z,3.50
2017-06-05T12:08:20.761Z,3.10
2017-06-05T12:10:48.324Z,3.30
2017-06-05T12:13:15.883Z,3.73
2017-06-05T12:15:43.447Z,3.10
2017-06-05T12:18:11.005Z,3.00
2017-06-05T12:20:38.662Z,3.13
2017-06-05T12:23:06.234Z,3.17
2017-06-05T12:25:33.794Z,3.30
2017-06-05T12:28:01.322Z,3.13
2017-06-05T12:30:28.878Z,3.07
2017-06-05T12:32:56.475Z,2.90
2017-06-05T12:35:24.122Z,2.97
2017-06-05T12:37:51.673Z,3.10
2017-06-05T12:40:27.130Z,3.00
2017-06-05T12:42:54.694Z,3.00
2017-06-05T12:45:22.262Z,2.90
2017-06-05T12:47:49.925Z,3.50
2017-06-05T12:50:17.490Z,2.50
2017-06-05T12:52:45.152Z,3.10
2017-06-05T12:55:12.712Z,3.17
2017-06-05T12:57:40.276Z,3.13
2017-06-05T13:00:07.833Z,3.03
2017-06-05T13:02:35.394Z,2.70
2017-06-05T13:05:02.954Z,3.20
2017-06-05T13:07:30.493Z,2.50
2017-06-05T13:09:58.022Z,3.03
2017-06-05T13:12:26.328Z,3.77
2017-06-05T13:14:53.874Z,3.00
2017-06-05T13:17:21.470Z,2.83
2017-06-05T13:19:49.002Z,2.90
2017-06-05T13:22:16.591Z,2.67
2017-06-05T13:24:44.153Z,3.10
2017-06-05T13:27:11.718Z,3.77
2017-06-05T13:29:39.282Z,2.47
2017-06-05T13:32:06.810Z,2.80
2017-06-05T13:34:34.454Z,2.43
2017-06-05T13:37:02.746Z,2.47
2017-06-05T13:39:30.362Z,2.60
2017-06-05T13:41:57.993Z,2.20
2017-06-05T13:44:39.587Z,2.40
2017-06-05T13:47:07.151Z,2.43
2017-06-05T13:49:34.682Z,2.50
2017-06-05T13:52:02.250Z,2.40
2017-06-05T13:54:29.840Z,2.60
2017-06-05T13:56:57.398Z,2.33
2017-06-05T13:59:24.959Z,2.83
2017-06-05T14:01:52.518Z,2.40
2017-06-05T14:04:20.050Z,2.50
2017-06-05T14:06:47.573Z,2.40
2017-06-05T14:09:15.182Z,2.20
2017-06-05T14:11:42.759Z,2.00
2017-06-05T14:14:10.322Z,2.37
2017-06-05T14:16:37.887Z,2.37
2017-06-05T14:19:05.423Z,1.93
2017-06-05T14:21:33.007Z,2.00
2017-06-05T14:24:00.534Z,2.10
2017-06-05T14:26:28.115Z,2.30
2017-06-05T14:28:55.683Z,1.90
2017-06-05T14:31:23.242Z,2.40
2017-06-05T14:33:50.775Z,2.37
2017-06-05T14:36:18.372Z,2.20
2017-06-05T14:38:45.928Z,2.23
2017-06-05T14:41:13.490Z,2.27
2017-06-05T14:43:41.052Z,2.00
2017-06-05T14:46:08.573Z,2.30
2017-06-05T14:48:36.111Z,2.23
2017-06-05T14:51:04.444Z,2.50
2017-06-05T14:53:32.011Z,1.90
2017-06-05T14:55:59.562Z,2.13
2017-06-05T14:58:27.094Z,2.30
2017-06-05T15:00:54.670Z,2.10
2017-06-05T15:03:22.246Z,2.30
2017-06-05T15:05:49.813Z,2.20
2017-06-05T15:08:17.341Z,2.60
2017-06-05T15:10:44.934Z,2.07
2017-06-05T15:13:12.466Z,1.93
2017-06-05T15:15:40.064Z,1.97
2017-06-05T15:18:07.715Z,2.33
2017-06-05T15:20:35.287Z,2.50
2017-06-05T15:23:02.824Z,2.60
2017-06-05T15:25:30.399Z,2.17
2017-06-05T15:27:57.959Z,2.27
2017-06-05T15:30:25.498Z,2.20
2017-06-05T15:32:53.087Z,2.63
2017-06-05T15:35:20.658Z,2.07
2017-06-05T15:37:48.191Z,2.40
2017-06-05T15:40:15.728Z,2.23
2017-06-05T15:42:43.265Z,2.50
2017-06-05T15:45:11.599Z,2.63
2017-06-05T15:47:39.158Z,2.27
2017-06-05T15:50:06.730Z,2.20
2017-06-05T15:52:34.396Z,2.47
2017-06-05T15:55:01.958Z,2.77
2017-06-05T15:57:29.516Z,2.33
2017-06-05T15:59:57.069Z,2.07
2017-06-05T16:02:24.598Z,2.10
2017-06-05T16:04:52.188Z,2.50
2017-06-05T16:07:19.843Z,2.30
2017-06-05T16:09:47.522Z,2.10
2017-06-05T16:12:15.074Z,2.37
2017-06-05T16:14:42.638Z,2.30
2017-06-05T16:17:10.195Z,2.87
2017-06-05T16:19:37.731Z,2.63
2017-06-05T16:22:05.326Z,2.70
2017-06-05T16:24:32.875Z,2.10
2017-06-05T16:27:00.549Z,3.10
2017-06-05T16:29:28.101Z,3.93
2017-06-05T16:31:55.865Z,2.87
2017-06-05T16:34:23.434Z,2.33
2017-06-05T16:36:50.991Z,9.93
2017-06-05T16:39:18.551Z,3.37
2017-06-05T16:41:46.119Z,2.80
2017-06-05T16:44:13.774Z,2.13
2017-06-05T16:46:41.298Z,2.30
2017-06-05T16:49:08.890Z,2.70
2017-06-05T16:51:36.465Z,3.20
2017-06-05T16:54:04.026Z,2.53
2017-06-05T16:56:31.554Z,2.70
2017-06-05T16:58:59.141Z,2.80
2017-06-05T17:01:26.802Z,2.27
2017-06-05T17:03:54.362Z,2.80
2017-06-05T17:06:21.984Z,2.70
2017-06-05T17:08:50.316Z,2.60
2017-06-05T17:11:17.920Z,3.40
2017-06-05T17:13:46.274Z,2.80
2017-06-05T17:16:14.087Z,2.90
2017-06-05T17:18:41.667Z,2.43
2017-06-05T17:21:09.322Z,2.90
2017-06-05T17:23:36.912Z,2.87
2017-06-05T17:26:04.547Z,3.17
2017-06-05T17:28:32.132Z,2.50
2017-06-05T17:30:59.678Z,2.47
2017-06-05T17:33:27.237Z,2.90
2017-06-05T17:35:54.776Z,2.53
2017-06-05T17:38:22.310Z,2.70
2017-06-05T17:40:50.690Z,2.20
2017-06-05T17:43:19.036Z,2.60
2017-06-05T17:45:46.720Z,2.63
2017-06-05T17:48:14.295Z,2.30
2017-06-05T17:50:42.621Z,3.00
2017-06-05T17:53:10.192Z,2.67
2017-06-05T17:55:37.733Z,2.67
2017-06-05T17:58:05.401Z,3.10
2017-06-05T18:00:32.974Z,2.67
2017-06-05T18:03:00.555Z,3.00
2017-06-05T18:05:28.121Z,2.80
2017-06-05T18:07:55.694Z,2.80
2017-06-05T18:10:23.256Z,2.57
2017-06-05T18:12:50.982Z,2.80
2017-06-05T18:15:18.646Z,3.27
2017-06-05T18:17:46.236Z,2.83
2017-06-05T18:20:13.847Z,2.80
2017-06-05T18:22:41.419Z,2.80
2017-06-05T18:25:09.028Z,2.90
2017-06-05T18:27:36.650Z,2.90
2017-06-05T18:30:04.210Z,2.53
2017-06-05T18:32:31.746Z,3.00
2017-06-05T18:34:59.422Z,2.90
2017-06-05T18:37:27.005Z,2.97
2017-06-05T18:39:54.534Z,2.63
2017-06-05T18:42:22.096Z,3.23
2017-06-05T18:44:49.686Z,3.27
2017-06-05T18:47:17.342Z,3.10
2017-06-05T18:49:44.870Z,2.80
2017-06-05T18:52:12.470Z,2.90
2017-06-05T18:54:40.010Z,3.20
2017-06-05T18:57:07.591Z,3.07
2017-06-05T18:59:35.152Z,3.40
2017-06-05T19:02:02.692Z,4.30
2017-06-05T19:04:30.226Z,3.83
2017-06-05T19:06:58.553Z,4.17
2017-06-05T19:09:26.114Z,4.27
2017-06-05T19:11:53.673Z,3.87
2017-06-05T19:14:21.213Z,3.77
2017-06-05T19:16:48.795Z,4.20
2017-06-05T19:19:16.366Z,4.00
2017-06-05T19:21:43.899Z,4.50
2017-06-05T19:24:11.474Z,4.20
2017-06-05T19:26:39.025Z,4.70
2017-06-05T19:29:06.595Z,4.10
2017-06-05T19:31:34.174Z,4.13
2017-06-05T19:34:01.720Z,4.80
2017-06-05T19:36:29.259Z,4.60
2017-06-05T19:38:56.838Z,4.77
2017-06-05T19:41:24.390Z,4.93
2017-06-05T19:43:51.959Z,5.10
2017-06-05T19:46:19.486Z,4.70
2017-06-05T19:48:47.099Z,4.40
2017-06-05T19:51:14.630Z,4.67
2017-06-05T19:53:42.190Z,4.50
2017-06-05T19:56:09.758Z,5.80
2017-06-05T19:58:37.326Z,4.80
2017-06-05T20:01:04.858Z,4.70
2017-06-05T20:03:32.446Z,5.03
2017-06-05T20:05:59.975Z,5.13
2017-06-05T20:08:27.574Z,4.90
2017-06-05T20:10:55.130Z,4.87
2017-06-05T20:13:22.687Z,5.77
2017-06-05T20:15:50.286Z,5.27
2017-06-05T20:18:17.826Z,5.30
2017-06-05T20:20:45.376Z,4.77
2017-06-05T20:23:12.980Z,5.37
2017-06-05T20:25:41.311Z,5.50
2017-06-05T20:28:08.870Z,5.47
2017-06-05T20:30:36.403Z,4.80
2017-06-05T20:33:03.990Z,5.70
2017-06-05T20:35:31.558Z,5.63
2017-06-05T20:37:59.226Z,6.70
2017-06-05T20:40:26.764Z,5.43
2017-06-05T20:42:54.334Z,6.10
2017-06-05T20:45:21.901Z,5.17
2017-06-05T20:47:49.462Z,5.97
2017-06-05T20:50:16.999Z,5.70
2017-06-05T20:52:44.582Z,5.97
2017-06-05T20:55:12.243Z,6.13
2017-06-05T20:57:39.811Z,6.10
2017-06-05T21:00:07.341Z,5.33
2017-06-05T21:02:34.926Z,6.20
2017-06-05T21:05:02.490Z,5.70
2017-06-05T21:07:30.055Z,5.80
2017-06-05T21:09:57.616Z,6.50
2017-06-05T21:12:25.179Z,5.53
2017-06-05T21:14:52.734Z,5.13
2017-06-05T21:17:20.294Z,5.83
2017-06-05T21:19:47.870Z,5.60
2017-06-05T21:22:15.398Z,5.47
2017-06-05T21:24:42.974Z,6.07
2017-06-05T21:27:10.507Z,5.90
2017-06-05T21:29:38.094Z,4.93
2017-06-05T21:32:05.631Z,5.77
2017-06-05T21:34:33.226Z,5.53
2017-06-05T21:37:00.778Z,5.57
2017-06-05T21:39:28.347Z,5.20
2017-06-05T21:41:55.879Z,5.73
2017-06-05T21:44:23.466Z,5.43
2017-06-05T21:46:51.126Z,6.20
2017-06-05T21:49:18.687Z,6.20
2017-06-05T21:51:46.346Z,5.70
2017-06-05T21:54:13.902Z,5.60
2017-06-05T21:56:41.439Z,6.23
2017-06-05T21:59:08.975Z,6.30
2017-06-05T22:01:37.280Z,5.40
2017-06-05T22:04:04.892Z,6.20
2017-06-05T22:06:32.532Z,5.83
2017-06-05T22:09:00.199Z,5.87
2017-06-05T22:11:27.775Z,5.40
2017-06-05T22:13:55.311Z,5.30
2017-06-05T22:16:22.847Z,6.30
2017-06-05T22:18:50.441Z,5.53
2017-06-05T22:21:18.098Z,6.40
2017-06-05T22:23:45.669Z,6.03
2017-06-05T22:26:13.237Z,5.73
2017-06-05T22:28:40.774Z,6.50
2017-06-05T22:31:08.302Z,5.63
2017-06-05T22:33:36.627Z,6.40
2017-06-05T22:36:04.162Z,6.00
2017-06-05T22:38:31.746Z,6.40
2017-06-05T22:40:59.311Z,6.40
2017-06-05T22:43:26.871Z,6.20
2017-06-05T22:45:54.415Z,5.87
2017-06-05T22:48:30.382Z,6.77
2017-06-05T22:50:57.951Z,7.50
2017-06-05T22:53:25.611Z,7.10
2017-06-05T22:55:53.174Z,7.27
2017-06-05T22:58:20.706Z,6.57
2017-06-05T23:00:48.242Z,6.30
2017-06-05T23:03:16.586Z,6.80
2017-06-05T23:05:44.176Z,6.70
2017-06-05T23:08:12.510Z,6.00
2017-06-05T23:10:40.114Z,6.43
2017-06-05T23:13:07.666Z,7.87
2017-06-05T23:15:35.356Z,6.60
2017-06-05T23:18:02.903Z,6.20
2017-06-05T23:20:31.239Z,6.90
2017-06-05T23:22:58.801Z,6.00
2017-06-05T23:25:26.377Z,7.07
2017-06-05T23:27:53.958Z,6.10
2017-06-05T23:30:21.580Z,6.70
2017-06-05T23:32:49.146Z,6.83
2017-06-05T23:35:16.726Z,7.00
2017-06-05T23:37:44.298Z,7.57
2017-06-05T23:40:11.932Z,6.53
2017-06-05T23:42:39.497Z,7.17
2017-06-05T23:45:07.098Z,7.13
2017-06-05T23:47:35.398Z,6.40
2017-06-05T23:50:03.000Z,7.53
2017-06-05T23:52:30.576Z,7.13
2017-06-05T23:54:58.219Z,6.43
2017-06-05T23:57:25.803Z,7.13
2017-06-05T23:59:53.381Z,6.57
